createdAt,value
2022-11-25T00:01:09.986Z,80.00
2022-11-25T00:03:36.738Z,79.96
2022-11-25T00:06:13.429Z,80.36
2022-11-25T00:08:41.610Z,79.46
2022-11-25T00:11:08.948Z,80.70
2022-11-25T00:13:36.257Z,80.67
2022-11-25T00:16:07.999Z,80.42
2022-11-25T00:18:34.876Z,80.03
2022-11-25T00:21:12.467Z,81.26
2022-11-25T00:23:39.074Z,80.85
2022-11-25T00:26:10.250Z,81.67
2022-11-25T00:28:38.404Z,79.77
2022-11-25T00:31:09.473Z,81.12
2022-11-25T00:33:36.356Z,79.98
2022-11-25T00:36:04.315Z,81.06
2022-11-25T00:38:30.781Z,81.09
2022-11-25T00:41:15.855Z,79.38
2022-11-25T00:44:00.990Z,80.56
2022-11-25T00:46:27.459Z,80.51
2022-11-25T00:48:53.912Z,80.77
2022-11-25T00:51:20.340Z,79.17
2022-11-25T00:53:46.763Z,81.09
2022-11-25T00:56:13.206Z,80.20
2022-11-25T00:58:40.570Z,79.47
2022-11-25T01:01:07.079Z,80.29
2022-11-25T01:03:34.941Z,79.97
2022-11-25T01:06:02.172Z,80.25
2022-11-25T01:08:33.323Z,79.40
2022-11-25T01:11:00.734Z,80.71
2022-11-25T01:13:27.303Z,80.00
2022-11-25T01:15:53.788Z,80.40
2022-11-25T01:18:20.340Z,80.25
2022-11-25T01:20:46.807Z,81.75
2022-11-25T01:23:13.290Z,80.89
2022-11-25T01:25:40.268Z,80.81
2022-11-25T01:28:06.711Z,80.75
2022-11-25T01:30:35.919Z,81.65
2022-11-25T01:33:06.231Z,81.62
2022-11-25T01:35:32.693Z,82.74
2022-11-25T01:37:59.110Z,81.76
2022-11-25T01:40:25.584Z,81.33
2022-11-25T01:42:52.017Z,80.18
2022-11-25T01:45:28.374Z,79.91
2022-11-25T01:47:58.796Z,80.01
2022-11-25T01:50:26.479Z,79.04
2022-11-25T01:52:53.929Z,78.59
2022-11-25T01:55:27.075Z,77.79
2022-11-25T01:58:17.851Z,79.50
2022-11-25T02:00:51.463Z,78.67
2022-11-25T02:03:26.048Z,78.86
2022-11-25T02:06:17.737Z,77.84
2022-11-25T02:08:48.533Z,80.44
2022-11-25T02:11:16.182Z,79.33
2022-11-25T02:13:43.521Z,78.96
2022-11-25T02:16:09.987Z,80.79
2022-11-25T02:18:36.462Z,80.77
2022-11-25T02:21:02.955Z,80.01
2022-11-25T02:23:36.187Z,79.43
2022-11-25T02:26:02.972Z,79.81
2022-11-25T02:28:31.547Z,79.04
2022-11-25T02:30:58.588Z,80.26
2022-11-25T02:33:25.918Z,80.98
2022-11-25T02:35:59.357Z,79.77
2022-11-25T02:38:46.018Z,79.11
2022-11-25T02:41:21.508Z,79.63
2022-11-25T02:43:48.331Z,80.66
2022-11-25T02:46:21.804Z,79.32
2022-11-25T02:51:35.699Z,79.74
2022-11-25T02:54:02.329Z,78.96
2022-11-25T02:56:31.689Z,79.23
2022-11-25T02:58:58.645Z,79.23
2022-11-25T03:01:25.219Z,80.16
2022-11-25T03:03:51.742Z,80.71
2022-11-25T03:06:18.512Z,80.47
2022-11-25T03:08:45.026Z,80.79
2022-11-25T03:11:11.493Z,79.35
2022-11-25T03:13:37.947Z,79.04
2022-11-25T03:16:04.827Z,79.10
2022-11-25T03:18:31.330Z,79.46
2022-11-25T03:20:57.776Z,78.59
2022-11-25T03:23:24.803Z,79.37
2022-11-25T03:25:51.274Z,79.45
2022-11-25T03:28:17.740Z,79.14
2022-11-25T03:30:44.320Z,80.02
2022-11-25T03:33:11.048Z,81.50
2022-11-25T03:35:37.549Z,80.92
2022-11-25T03:38:04.119Z,80.70
2022-11-25T03:40:30.557Z,80.61
2022-11-25T03:42:57.008Z,79.80
2022-11-25T03:45:23.438Z,78.75
2022-11-25T03:47:49.962Z,79.61
2022-11-25T03:50:16.728Z,79.03
2022-11-25T03:52:43.224Z,79.33
2022-11-25T03:55:10.183Z,79.83
2022-11-25T03:57:36.670Z,79.55
2022-11-25T04:00:04.627Z,79.71
2022-11-25T04:02:31.127Z,78.08
2022-11-25T04:04:57.819Z,79.56
2022-11-25T04:07:24.312Z,78.55
2022-11-25T04:09:50.832Z,79.41
2022-11-25T04:12:36.034Z,80.02
2022-11-25T04:15:03.034Z,80.18
2022-11-25T04:17:29.495Z,79.66
2022-11-25T04:19:55.944Z,79.47
2022-11-25T04:22:22.410Z,79.50
2022-11-25T04:24:48.896Z,79.70
2022-11-25T04:27:15.350Z,79.09
2022-11-25T04:29:41.780Z,79.94
2022-11-25T04:32:08.230Z,79.33
2022-11-25T04:34:34.998Z,79.84
2022-11-25T04:37:01.592Z,78.06
2022-11-25T04:39:28.020Z,79.64
2022-11-25T04:42:17.343Z,80.75
2022-11-25T04:44:55.903Z,80.66
2022-11-25T04:47:30.382Z,80.24
2022-11-25T04:49:56.812Z,82.44
2022-11-25T04:52:23.338Z,81.08
2022-11-25T04:54:49.800Z,80.59
2022-11-25T04:57:16.806Z,79.43
2022-11-25T04:59:43.744Z,79.70
2022-11-25T05:02:17.855Z,79.74
2022-11-25T05:04:45.742Z,81.19
2022-11-25T05:07:13.255Z,81.10
2022-11-25T05:09:40.036Z,81.03
2022-11-25T05:12:07.976Z,80.68
2022-11-25T05:14:35.894Z,79.33
2022-11-25T05:17:03.902Z,80.65
2022-11-25T05:19:30.437Z,80.33
2022-11-25T05:21:56.870Z,80.55
2022-11-25T05:24:24.333Z,80.31
2022-11-25T05:26:50.808Z,79.87
2022-11-25T05:29:17.364Z,79.32
2022-11-25T05:31:43.808Z,79.45
2022-11-25T05:34:10.312Z,78.52
2022-11-25T05:36:37.011Z,80.84
2022-11-25T05:39:04.172Z,79.69
2022-11-25T05:41:30.652Z,81.02
2022-11-25T05:43:57.214Z,81.32
2022-11-25T05:46:23.694Z,79.99
2022-11-25T05:48:53.655Z,80.59
2022-11-25T05:51:20.170Z,81.52
2022-11-25T05:53:46.661Z,81.88
2022-11-25T05:56:13.111Z,82.00
2022-11-25T05:58:39.643Z,81.53
2022-11-25T06:01:10.835Z,83.23
2022-11-25T06:03:37.751Z,81.57
2022-11-25T06:06:05.398Z,81.92
2022-11-25T06:08:32.358Z,81.33
2022-11-25T06:10:58.814Z,81.40
2022-11-25T06:13:25.772Z,80.82
2022-11-25T06:15:52.285Z,80.28
2022-11-25T06:18:19.169Z,79.88
2022-11-25T06:20:45.932Z,80.58
2022-11-25T06:23:12.362Z,81.57
2022-11-25T06:25:38.835Z,82.72
2022-11-25T06:28:12.683Z,81.18
2022-11-25T06:30:39.875Z,82.03
2022-11-25T06:33:06.318Z,81.01
2022-11-25T06:35:32.761Z,80.90
2022-11-25T06:37:59.774Z,81.34
2022-11-25T06:40:26.261Z,80.12
2022-11-25T06:42:52.774Z,79.89
2022-11-25T06:45:19.302Z,80.94
2022-11-25T06:47:45.755Z,82.06
2022-11-25T06:50:12.287Z,80.84
2022-11-25T06:52:38.755Z,79.95
2022-11-25T06:55:05.577Z,80.59
2022-11-25T06:57:32.131Z,82.06
2022-11-25T06:59:58.656Z,80.66
2022-11-25T07:02:25.103Z,80.07
2022-11-25T07:04:51.656Z,82.49
2022-11-25T07:07:18.208Z,80.29
2022-11-25T07:09:44.839Z,79.43
2022-11-25T07:12:12.410Z,80.22
2022-11-25T07:14:39.206Z,81.20
2022-11-25T07:17:11.530Z,80.55
2022-11-25T07:19:38.613Z,80.49
2022-11-25T07:22:05.087Z,80.20
2022-11-25T07:24:31.563Z,79.91
2022-11-25T07:26:58.050Z,79.21
2022-11-25T07:32:11.355Z,81.39
2022-11-25T07:34:38.164Z,78.49
2022-11-25T07:37:04.600Z,80.47
2022-11-25T07:39:31.138Z,80.44
2022-11-25T07:41:57.559Z,79.37
2022-11-25T07:44:24.012Z,78.49
2022-11-25T07:46:51.399Z,78.09
2022-11-25T07:49:20.949Z,80.08
2022-11-25T07:51:48.924Z,78.90
2022-11-25T07:54:15.540Z,78.95
2022-11-25T07:56:44.861Z,79.16
2022-11-25T07:59:21.775Z,79.11
2022-11-25T08:01:55.523Z,81.35
2022-11-25T08:04:22.636Z,82.36
2022-11-25T08:06:51.419Z,80.05
2022-11-25T08:09:20.863Z,80.86
2022-11-25T08:11:48.312Z,79.21
2022-11-25T08:14:15.465Z,80.49
2022-11-25T08:16:42.345Z,81.01
2022-11-25T08:19:11.929Z,80.90
2022-11-25T08:21:38.433Z,80.26
2022-11-25T08:24:05.383Z,79.74
2022-11-25T08:26:36.280Z,82.78
2022-11-25T08:29:04.171Z,82.66
2022-11-25T08:31:33.702Z,82.37
2022-11-25T08:34:00.560Z,81.24
2022-11-25T08:36:28.055Z,81.52
2022-11-25T08:38:57.794Z,80.25
2022-11-25T08:41:27.101Z,80.75
2022-11-25T08:43:53.576Z,81.12
2022-11-25T08:46:22.605Z,82.78
2022-11-25T08:48:49.159Z,81.31
2022-11-25T08:51:18.417Z,81.07
2022-11-25T08:53:45.846Z,81.85
2022-11-25T08:56:12.654Z,82.45
2022-11-25T08:58:39.430Z,82.62
2022-11-25T09:01:07.482Z,82.31
2022-11-25T09:03:43.151Z,83.17
2022-11-25T09:06:10.546Z,83.03
2022-11-25T09:08:37.769Z,81.56
2022-11-25T09:11:04.453Z,80.73
2022-11-25T09:13:30.988Z,80.86
2022-11-25T09:15:57.994Z,81.94
2022-11-25T09:18:26.287Z,81.35
2022-11-25T09:20:54.003Z,81.54
2022-11-25T09:23:20.802Z,82.42
2022-11-25T09:25:54.805Z,81.55
2022-11-25T09:28:22.202Z,81.15
2022-11-25T09:30:49.032Z,80.13
2022-11-25T09:33:15.708Z,80.02
2022-11-25T09:35:42.483Z,80.37
2022-11-25T09:38:09.066Z,80.42
2022-11-25T09:40:53.880Z,78.65
2022-11-25T09:44:11.927Z,79.12
2022-11-25T09:46:47.264Z,78.89
2022-11-25T09:49:32.599Z,79.05
2022-11-25T09:52:37.075Z,77.49
2022-11-25T09:55:17.016Z,77.68
2022-11-25T09:57:49.436Z,78.96
2022-11-25T10:00:19.776Z,79.22
2022-11-25T10:03:01.656Z,78.60
2022-11-25T10:05:34.130Z,78.10
2022-11-25T10:08:07.612Z,78.64
2022-11-25T10:10:46.224Z,78.39
2022-11-25T10:13:21.166Z,78.46
2022-11-25T10:15:50.280Z,78.03
2022-11-25T10:18:34.947Z,78.65
2022-11-25T10:21:01.431Z,78.64
2022-11-25T10:23:32.456Z,78.77
2022-11-25T10:26:10.615Z,77.93
2022-11-25T10:28:38.171Z,78.99
2022-11-25T10:31:11.373Z,78.97
2022-11-25T10:33:41.209Z,78.22
2022-11-25T10:36:11.539Z,78.02
2022-11-25T10:38:45.385Z,77.70
2022-11-25T10:41:16.439Z,78.85
2022-11-25T10:43:43.576Z,78.68
2022-11-25T10:47:11.527Z,79.09
2022-11-25T10:49:31.102Z,78.80
2022-11-25T10:51:57.921Z,79.56
2022-11-25T10:54:27.829Z,78.73
2022-11-25T10:56:57.765Z,79.13
2022-11-25T10:59:25.600Z,79.35
2022-11-25T11:01:53.428Z,79.14
2022-11-25T11:04:20.500Z,79.13
2022-11-25T11:06:49.742Z,77.82
2022-11-25T11:09:33.296Z,78.74
2022-11-25T11:12:27.242Z,78.42
2022-11-25T11:14:55.011Z,78.82
2022-11-25T11:17:34.753Z,78.38
2022-11-25T11:20:04.758Z,78.76
2022-11-25T11:22:32.143Z,78.05
2022-11-25T11:25:29.282Z,78.10
2022-11-25T11:27:56.003Z,78.62
2022-11-25T11:30:28.556Z,78.74
2022-11-25T11:33:02.260Z,79.68
2022-11-25T11:35:53.964Z,78.66
2022-11-25T11:38:27.924Z,79.19
2022-11-25T11:41:00.682Z,80.64
2022-11-25T11:43:48.370Z,80.80
2022-11-25T11:46:37.574Z,81.24
2022-11-25T11:49:41.645Z,83.22
2022-11-25T11:52:43.600Z,81.33
2022-11-25T11:55:45.329Z,81.35
2022-11-25T11:58:21.468Z,80.01
2022-11-25T12:01:07.637Z,79.91
2022-11-25T12:03:39.976Z,80.67
2022-11-25T12:06:06.755Z,80.98
2022-11-25T12:08:51.882Z,81.15
2022-11-25T12:11:23.004Z,81.01
2022-11-25T12:14:11.539Z,81.52
2022-11-25T12:16:43.188Z,81.92
2022-11-25T12:19:31.134Z,80.66
2022-11-25T12:22:08.822Z,79.81
2022-11-25T12:24:58.770Z,80.36
2022-11-25T12:27:47.384Z,80.45
2022-11-25T12:30:19.685Z,81.24
2022-11-25T12:33:04.590Z,80.85
2022-11-25T12:35:37.584Z,81.30
2022-11-25T12:38:18.156Z,80.55
2022-11-25T12:40:54.407Z,80.62
2022-11-25T12:43:39.539Z,80.26
2022-11-25T12:46:18.043Z,79.91
2022-11-25T12:48:44.893Z,79.79
2022-11-25T12:51:20.498Z,79.07
2022-11-25T12:54:17.907Z,78.58
2022-11-25T12:57:07.089Z,78.70
2022-11-25T13:00:06.046Z,79.74
2022-11-25T13:02:54.018Z,79.57
2022-11-25T13:05:54.119Z,80.13
2022-11-25T13:08:38.821Z,79.61
2022-11-25T13:11:11.645Z,80.28
2022-11-25T13:13:47.584Z,79.76
2022-11-25T13:16:14.909Z,79.24
2022-11-25T13:18:44.437Z,79.84
2022-11-25T13:21:13.351Z,80.40
2022-11-25T13:23:52.917Z,81.09
2022-11-25T13:26:28.700Z,80.34
2022-11-25T13:28:56.247Z,80.34
2022-11-25T13:31:25.181Z,81.12
2022-11-25T13:34:30.284Z,81.46
2022-11-25T13:36:58.482Z,82.86
2022-11-25T13:39:33.482Z,82.08
2022-11-25T13:42:10.982Z,81.96
2022-11-25T13:44:50.385Z,80.25
2022-11-25T13:47:35.620Z,81.68
2022-11-25T13:50:04.656Z,82.02
2022-11-25T13:52:35.345Z,80.37
2022-11-25T13:55:29.140Z,80.97
2022-11-25T13:58:10.971Z,81.29
2022-11-25T14:00:37.395Z,81.22
2022-11-25T14:03:19.197Z,79.58
2022-11-25T14:05:57.827Z,80.99
2022-11-25T14:08:43.547Z,81.13
2022-11-25T14:11:09.957Z,80.03
2022-11-25T14:13:58.615Z,79.64
2022-11-25T14:16:43.821Z,78.94
2022-11-25T14:19:50.657Z,80.28
2022-11-25T14:22:35.723Z,79.73
2022-11-25T14:25:19.833Z,79.21
2022-11-25T14:27:49.087Z,80.11
2022-11-25T14:30:17.068Z,80.79
2022-11-25T14:32:57.619Z,80.69
2022-11-25T14:35:32.725Z,81.51
2022-11-25T14:38:44.576Z,81.58
2022-11-25T14:41:23.968Z,78.85
2022-11-25T14:44:04.127Z,80.70
2022-11-25T14:46:30.667Z,80.93
2022-11-25T14:48:59.308Z,81.84
2022-11-25T14:51:27.693Z,80.48
2022-11-25T14:53:54.738Z,79.76
2022-11-25T14:56:24.460Z,78.83
2022-11-25T14:58:52.189Z,80.18
2022-11-25T15:01:28.499Z,78.93
2022-11-25T15:04:19.499Z,80.22
2022-11-25T15:06:57.779Z,80.85
2022-11-25T15:09:25.498Z,78.99
2022-11-25T15:12:16.839Z,79.35
2022-11-25T15:14:48.947Z,78.60
2022-11-25T15:17:28.349Z,80.10
2022-11-25T15:19:57.616Z,79.26
2022-11-25T15:22:24.738Z,79.46
2022-11-25T15:24:55.913Z,78.43
2022-11-25T15:27:28.434Z,78.84
2022-11-25T15:29:56.040Z,79.66
2022-11-25T15:32:31.568Z,79.27
2022-11-25T15:34:59.975Z,78.78
2022-11-25T15:37:27.195Z,79.52
2022-11-25T15:40:31.298Z,78.87
2022-11-25T15:42:59.941Z,78.76
2022-11-25T15:45:27.612Z,79.09
2022-11-25T15:47:54.225Z,78.68
2022-11-25T15:50:25.354Z,78.33
2022-11-25T15:52:54.496Z,79.64
2022-11-25T15:55:33.123Z,77.84
2022-11-25T15:58:11.314Z,77.46
2022-11-25T16:00:38.231Z,78.20
2022-11-25T16:03:19.120Z,78.29
2022-11-25T16:05:56.543Z,77.47
2022-11-25T16:08:30.859Z,78.05
2022-11-25T16:11:00.232Z,78.22
2022-11-25T16:13:30.542Z,78.17
2022-11-25T16:16:00.138Z,77.64
2022-11-25T16:18:41.236Z,78.24
2022-11-25T16:21:10.965Z,78.72
2022-11-25T16:23:43.018Z,79.01
2022-11-25T16:26:12.434Z,78.32
2022-11-25T16:28:49.898Z,79.27
2022-11-25T16:31:17.176Z,78.66
2022-11-25T16:33:43.689Z,79.13
2022-11-25T16:36:10.138Z,79.29
2022-11-25T16:38:36.612Z,78.72
2022-11-25T16:41:20.594Z,79.13
2022-11-25T16:43:47.071Z,77.82
2022-11-25T16:46:19.037Z,77.10
2022-11-25T16:48:46.084Z,77.44
2022-11-25T16:51:24.122Z,77.64
2022-11-25T16:53:50.932Z,77.70
2022-11-25T16:56:29.729Z,77.25
2022-11-25T16:58:57.691Z,76.76
2022-11-25T17:01:27.046Z,77.42
2022-11-25T17:03:54.601Z,77.35
2022-11-25T17:06:24.280Z,76.75
2022-11-25T17:08:51.938Z,78.34
2022-11-25T17:11:27.066Z,77.50
2022-11-25T17:13:54.403Z,78.79
2022-11-25T17:16:23.881Z,77.64
2022-11-25T17:18:52.598Z,78.50
2022-11-25T17:21:19.054Z,78.64
2022-11-25T17:23:49.175Z,78.09
2022-11-25T17:26:24.744Z,78.45
2022-11-25T17:28:58.399Z,77.61
2022-11-25T17:31:27.458Z,77.68
2022-11-25T17:33:54.063Z,77.41
2022-11-25T17:36:21.234Z,77.90
2022-11-25T17:38:48.370Z,78.21
2022-11-25T17:41:16.622Z,78.35
2022-11-25T17:43:44.468Z,77.90
2022-11-25T17:46:11.962Z,78.11
2022-11-25T17:48:39.340Z,78.69
2022-11-25T17:51:07.578Z,78.71
2022-11-25T17:53:37.880Z,78.79
2022-11-25T17:56:26.525Z,78.68
2022-11-25T17:58:53.149Z,78.36
2022-11-25T18:01:19.718Z,78.67
2022-11-25T18:03:46.332Z,77.95
2022-11-25T18:06:12.812Z,78.13
2022-11-25T18:08:39.333Z,78.21
2022-11-25T18:11:06.726Z,76.96
2022-11-25T18:13:39.695Z,77.15
2022-11-25T18:16:07.776Z,77.49
2022-11-25T18:18:34.497Z,77.40
2022-11-25T18:21:02.438Z,78.25
2022-11-25T18:23:28.918Z,77.80
2022-11-25T18:25:56.734Z,77.88
2022-11-25T18:28:27.005Z,77.63
2022-11-25T18:30:55.880Z,77.99
2022-11-25T18:33:22.462Z,77.63
2022-11-25T18:35:48.874Z,76.78
2022-11-25T18:38:15.583Z,77.60
2022-11-25T18:40:46.395Z,77.26
2022-11-25T18:43:18.215Z,78.02
2022-11-25T18:45:45.027Z,78.89
2022-11-25T18:48:15.240Z,79.56
2022-11-25T18:50:42.410Z,80.85
2022-11-25T18:53:08.855Z,81.25
2022-11-25T18:55:35.404Z,80.65
2022-11-25T18:58:02.589Z,80.51
2022-11-25T19:00:32.662Z,80.30
2022-11-25T19:02:59.861Z,79.67
2022-11-25T19:05:30.121Z,79.51
2022-11-25T19:07:57.022Z,79.25
2022-11-25T19:10:32.051Z,78.70
2022-11-25T19:13:01.581Z,79.28
2022-11-25T19:15:28.205Z,78.70
2022-11-25T19:18:00.780Z,79.09
2022-11-25T19:20:28.555Z,79.71
2022-11-25T19:23:00.303Z,79.69
2022-11-25T19:25:27.307Z,79.49
2022-11-25T19:27:56.789Z,80.93
2022-11-25T19:30:26.181Z,80.85
2022-11-25T19:32:54.865Z,81.25
2022-11-25T19:35:33.659Z,81.09
2022-11-25T19:38:00.128Z,81.17
2022-11-25T19:40:26.661Z,81.27
2022-11-25T19:42:53.140Z,80.68
2022-11-25T19:45:20.743Z,79.50
2022-11-25T19:47:49.943Z,80.35
2022-11-25T19:50:22.537Z,78.73
2022-11-25T19:52:49.881Z,80.29
2022-11-25T19:55:24.667Z,79.01
2022-11-25T19:57:51.495Z,79.05
2022-11-25T20:00:19.630Z,79.90
2022-11-25T20:02:46.939Z,80.93
2022-11-25T20:05:19.800Z,81.43
2022-11-25T20:07:47.130Z,79.90
2022-11-25T20:10:40.106Z,80.13
2022-11-25T20:13:06.671Z,79.41
2022-11-25T20:15:33.127Z,79.08
2022-11-25T20:18:00.776Z,79.19
2022-11-25T20:20:28.927Z,79.78
2022-11-25T20:22:59.645Z,79.26
2022-11-25T20:25:26.758Z,79.92
2022-11-25T20:27:53.832Z,78.61
2022-11-25T20:30:25.909Z,78.91
2022-11-25T20:32:52.504Z,79.69
2022-11-25T20:35:19.415Z,79.92
2022-11-25T20:37:53.980Z,80.05
2022-11-25T20:40:23.748Z,79.37
2022-11-25T20:42:50.582Z,79.14
2022-11-25T20:45:22.074Z,78.27
2022-11-25T20:47:50.910Z,78.19
2022-11-25T20:50:19.148Z,78.24
2022-11-25T20:52:46.938Z,78.69
2022-11-25T20:55:24.879Z,77.98
2022-11-25T20:57:52.151Z,77.72
2022-11-25T21:00:24.185Z,78.06
2022-11-25T21:02:53.074Z,77.86
2022-11-25T21:05:20.117Z,77.91
2022-11-25T21:07:47.815Z,77.84
2022-11-25T21:10:27.756Z,77.61
2022-11-25T21:12:55.245Z,77.69
2022-11-25T21:15:23.943Z,78.21
2022-11-25T21:17:50.692Z,79.40
2022-11-25T21:20:18.368Z,78.42
2022-11-25T21:22:47.178Z,78.09
2022-11-25T21:25:15.975Z,77.58
2022-11-25T21:27:42.959Z,77.68
2022-11-25T21:30:27.233Z,76.98
2022-11-25T21:32:55.868Z,76.85
2022-11-25T21:35:24.642Z,76.60
2022-11-25T21:37:51.144Z,77.24
2022-11-25T21:40:31.298Z,76.02
2022-11-25T21:42:58.106Z,78.10
2022-11-25T21:45:24.623Z,77.83
2022-11-25T21:47:51.062Z,77.77
2022-11-25T21:50:19.501Z,77.96
2022-11-25T21:52:46.011Z,76.57
2022-11-25T21:55:13.678Z,78.45
2022-11-25T21:57:40.387Z,76.89
2022-11-25T22:00:19.871Z,77.58
2022-11-25T22:02:46.946Z,77.86
2022-11-25T22:05:17.873Z,77.79
2022-11-25T22:07:44.495Z,78.29
2022-11-25T22:10:12.727Z,77.63
2022-11-25T22:12:41.629Z,77.72
2022-11-25T22:15:28.677Z,76.58
2022-11-25T22:17:57.682Z,76.83
2022-11-25T22:20:40.388Z,76.88
2022-11-25T22:23:16.569Z,77.19
2022-11-25T22:25:43.247Z,76.35
2022-11-25T22:28:21.622Z,77.93
2022-11-25T22:30:50.442Z,77.87
2022-11-25T22:33:17.276Z,76.69
2022-11-25T22:35:43.736Z,77.45
2022-11-25T22:38:15.175Z,78.55
2022-11-25T22:40:43.224Z,76.51
2022-11-25T22:43:21.589Z,77.29
2022-11-25T22:45:48.112Z,78.99
2022-11-25T22:48:17.024Z,76.90
2022-11-25T22:50:45.529Z,76.26
2022-11-25T22:53:17.230Z,75.68
2022-11-25T22:55:44.792Z,77.41
2022-11-25T22:58:13.254Z,77.28
2022-11-25T23:00:42.694Z,75.50
2022-11-25T23:03:19.911Z,76.27
2022-11-25T23:05:46.618Z,76.13
2022-11-25T23:08:18.892Z,75.73
2022-11-25T23:10:45.473Z,76.15
2022-11-25T23:13:12.571Z,75.20
2022-11-25T23:15:41.821Z,75.35
2022-11-25T23:18:17.376Z,75.38
2022-11-25T23:20:43.901Z,75.11
2022-11-25T23:23:22.047Z,75.78
2022-11-25T23:25:49.060Z,76.34
2022-11-25T23:28:16.397Z,75.81
2022-11-25T23:30:52.287Z,76.67
2022-11-25T23:33:32.498Z,75.76
2022-11-25T23:36:02.461Z,75.73
2022-11-25T23:38:31.399Z,76.61
2022-11-25T23:40:57.869Z,77.19
2022-11-25T23:43:24.399Z,77.68
2022-11-25T23:45:56.081Z,77.77
2022-11-25T23:48:28.223Z,77.21
2022-11-25T23:50:55.980Z,77.87
2022-11-25T23:53:26.703Z,77.45
2022-11-25T23:55:53.487Z,77.78
2022-11-25T23:58:21.331Z,78.26
